Time;durP1;ratioP1;P1;durP2;ratioP2;P2;SDS_P1;SDS_P2;PMS_P1;PMS_P2;Temp;Humidity;BMP_temperature;BMP_pressure;BME280_temperature;BME280_humidity;BME280_pressure;Samples;Min_cycle;Max_cycle;Signal;HPM_P1;HPM_P2
2022/03/03 00:01:41;;;;;;;86.25;39.03;;;2.50;99.90;;;;;;5002406;28;20038;-67
2022/03/03 00:04:07;;;;;;;75.50;37.38;;;2.40;99.90;;;;;;5002568;28;20088;-67
2022/03/03 00:06:34;;;;;;;77.32;37.60;;;2.40;99.90;;;;;;5003123;28;20129;-67
2022/03/03 00:09:00;;;;;;;78.05;37.47;;;2.40;99.90;;;;;;5002665;28;20107;-68
2022/03/03 00:11:26;;;;;;;84.25;39.05;;;2.40;99.90;;;;;;5003558;28;20042;-67
2022/03/03 00:13:51;;;;;;;82.47;39.03;;;2.30;99.90;;;;;;5005580;28;20507;-67
2022/03/03 00:16:17;;;;;;;77.28;38.55;;;2.30;99.90;;;;;;5003729;28;20037;-68
2022/03/03 00:18:43;;;;;;;80.82;39.65;;;2.30;99.90;;;;;;5016330;28;20049;-68
2022/03/03 00:21:09;;;;;;;80.65;38.72;;;2.30;99.90;;;;;;4998497;28;20050;-67
2022/03/03 00:23:34;;;;;;;81.43;37.88;;;2.30;99.90;;;;;;4981886;28;20138;-68
2022/03/03 00:26:00;;;;;;;85.22;38.95;;;2.20;99.90;;;;;;4984901;28;20041;-68
2022/03/03 00:28:26;;;;;;;74.32;37.60;;;2.30;99.90;;;;;;4998565;28;20121;-68
2022/03/03 00:30:53;;;;;;;81.88;38.00;;;2.30;99.90;;;;;;5019971;28;20399;-68
2022/03/03 00:33:19;;;;;;;69.13;36.50;;;2.40;99.90;;;;;;4977555;28;20057;-68
2022/03/03 00:35:45;;;;;;;77.40;36.88;;;2.30;99.90;;;;;;4995250;28;20034;-68
2022/03/03 00:38:11;;;;;;;79.00;38.42;;;2.30;99.90;;;;;;5015866;28;20038;-67
2022/03/03 00:40:37;;;;;;;68.78;36.65;;;2.30;99.90;;;;;;5001271;28;20052;-67
2022/03/03 00:43:06;;;;;;;73.45;36.70;;;2.30;99.90;;;;;;5000359;28;20077;-68
2022/03/03 00:45:33;;;;;;;79.53;36.17;;;2.30;99.90;;;;;;4998636;28;20042;-67
2022/03/03 00:48:01;;;;;;;75.40;35.60;;;2.30;99.90;;;;;;4993511;28;20072;-67
2022/03/03 00:50:27;;;;;;;71.13;34.90;;;2.30;99.90;;;;;;4997968;28;20053;-67
2022/03/03 00:52:52;;;;;;;71.22;36.08;;;2.20;99.90;;;;;;5019737;28;20423;-67
2022/03/03 00:55:18;;;;;;;73.15;34.72;;;2.00;99.90;;;;;;4989147;28;20045;-68
2022/03/03 00:57:45;;;;;;;74.68;36.00;;;1.90;99.90;;;;;;5001769;28;20042;-67
2022/03/03 01:00:11;;;;;;;67.45;36.03;;;1.90;99.90;;;;;;5020818;28;20156;-67
2022/03/03 01:02:37;;;;;;;65.97;34.40;;;1.80;99.90;;;;;;5010234;28;20092;-68
2022/03/03 01:05:04;;;;;;;62.53;33.47;;;1.70;99.90;;;;;;4975639;28;20491;-68
2022/03/03 01:07:30;;;;;;;65.47;34.03;;;1.70;99.90;;;;;;4999075;28;20045;-67
2022/03/03 01:09:57;;;;;;;73.47;34.78;;;1.60;99.90;;;;;;4973661;28;20050;-67
2022/03/03 01:12:22;;;;;;;68.00;35.15;;;1.70;99.90;;;;;;4981069;28;20089;-68
2022/03/03 01:14:49;;;;;;;71.07;35.92;;;1.70;99.90;;;;;;4991905;28;20100;-67
2022/03/03 01:17:16;;;;;;;73.32;35.60;;;1.80;99.90;;;;;;5008533;28;20500;-67
2022/03/03 01:19:42;;;;;;;78.03;38.08;;;1.80;99.90;;;;;;5011393;28;20053;-67
2022/03/03 01:22:09;;;;;;;72.82;35.10;;;1.80;99.90;;;;;;4988145;28;20058;-67
2022/03/03 01:24:34;;;;;;;72.18;35.08;;;1.80;99.90;;;;;;4984880;28;20054;-67
2022/03/03 01:27:00;;;;;;;72.90;35.65;;;1.80;99.90;;;;;;4988294;28;20048;-67
2022/03/03 01:29:27;;;;;;;71.38;35.00;;;1.90;99.90;;;;;;4985420;28;20479;-67
2022/03/03 01:31:53;;;;;;;70.70;35.50;;;1.90;99.90;;;;;;4997140;28;20049;-67
2022/03/03 01:34:18;;;;;;;72.78;37.05;;;1.90;99.90;;;;;;5009611;28;20049;-67
2022/03/03 01:36:44;;;;;;;67.75;33.65;;;1.90;99.90;;;;;;4958449;28;20057;-67
2022/03/03 01:39:11;;;;;;;71.63;34.85;;;1.90;99.90;;;;;;4977757;28;20512;-67
2022/03/03 01:41:41;;;;;;;71.28;35.20;;;1.90;99.90;;;;;;5019363;28;20084;-68
2022/03/03 01:44:08;;;;;;;67.57;33.90;;;1.90;99.90;;;;;;4988249;28;20046;-67
2022/03/03 01:46:34;;;;;;;64.43;34.42;;;1.80;99.90;;;;;;4981480;28;20096;-68
2022/03/03 01:49:00;;;;;;;76.75;36.17;;;1.70;99.90;;;;;;4988125;28;20046;-67
2022/03/03 01:51:27;;;;;;;70.80;36.70;;;1.60;99.90;;;;;;4967635;28;20391;-68
2022/03/03 01:53:52;;;;;;;67.57;34.28;;;1.40;99.90;;;;;;4987936;28;20092;-67
2022/03/03 01:56:19;;;;;;;74.78;37.55;;;1.40;99.90;;;;;;4978147;28;20074;-67
2022/03/03 01:58:45;;;;;;;75.60;36.40;;;1.40;99.90;;;;;;5004469;28;20586;-67
2022/03/03 02:01:12;;;;;;;67.68;33.00;;;1.40;99.90;;;;;;4991438;28;20135;-68
2022/03/03 02:03:38;;;;;;;75.28;36.63;;;1.40;99.90;;;;;;5007385;28;20148;-67
2022/03/03 02:06:04;;;;;;;70.10;35.10;;;1.40;99.90;;;;;;4987579;28;20112;-67
2022/03/03 02:08:30;;;;;;;71.35;36.45;;;1.40;99.90;;;;;;5000545;28;20041;-67
2022/03/03 02:10:56;;;;;;;68.15;35.75;;;1.50;99.90;;;;;;4994185;28;20496;-67
2022/03/03 02:13:21;;;;;;;73.35;35.22;;;1.60;99.90;;;;;;4976719;28;20546;-67
2022/03/03 02:15:54;;;;;;;73.30;36.05;;;1.50;99.90;;;;;;4990058;28;20042;-67
2022/03/03 02:18:21;;;;;;;70.40;36.22;;;1.40;99.90;;;;;;4987275;28;20054;-67
2022/03/03 02:20:47;;;;;;;75.45;36.33;;;1.30;99.90;;;;;;4984010;28;20155;-67
2022/03/03 02:23:13;;;;;;;72.93;34.60;;;1.30;99.90;;;;;;4987357;28;20409;-67
2022/03/03 02:25:39;;;;;;;67.93;34.40;;;1.30;99.90;;;;;;5000324;28;20119;-67
2022/03/03 02:28:06;;;;;;;69.75;34.45;;;1.20;99.90;;;;;;5007454;28;20050;-67
2022/03/03 02:30:32;;;;;;;73.43;35.25;;;1.20;99.90;;;;;;4989591;28;20050;-67
2022/03/03 02:32:58;;;;;;;73.18;35.97;;;1.20;99.90;;;;;;4990457;28;20393;-67
2022/03/03 02:35:24;;;;;;;69.72;34.92;;;1.10;99.90;;;;;;4989820;28;20053;-67
2022/03/03 02:37:50;;;;;;;75.68;35.67;;;1.10;99.90;;;;;;4971306;28;20045;-67
2022/03/03 02:40:22;;;;;;;67.45;34.92;;;1.10;99.90;;;;;;4987035;28;20511;-67
2022/03/03 02:42:50;;;;;;;75.75;37.25;;;1.10;99.90;;;;;;4980266;28;20129;-67
2022/03/03 02:45:16;;;;;;;73.88;37.55;;;1.10;99.90;;;;;;4990078;28;20514;-68
2022/03/03 02:47:45;;;;;;;73.88;37.75;;;1.20;99.90;;;;;;4985731;28;20562;-67
2022/03/03 02:50:12;;;;;;;80.88;38.42;;;1.20;99.90;;;;;;4985724;28;20563;-68
2022/03/03 02:52:39;;;;;;;85.13;37.15;;;1.30;99.90;;;;;;4980941;28;20669;-68
2022/03/03 02:55:06;;;;;;;77.95;37.65;;;1.40;99.90;;;;;;4991743;28;20041;-67
2022/03/03 03:00:17;;;;;;;79.00;37.47;;;1.30;99.90;;;;;;5003801;28;20512;-67
2022/03/03 03:02:43;;;;;;;79.22;36.08;;;1.30;99.90;;;;;;4990013;28;20061;-68
2022/03/03 03:05:09;;;;;;;75.90;35.83;;;1.40;99.90;;;;;;4987450;28;20053;-67
2022/03/03 03:07:36;;;;;;;76.13;35.70;;;1.30;99.90;;;;;;5015721;28;20049;-67
2022/03/03 03:10:03;;;;;;;77.10;37.28;;;1.30;99.90;;;;;;4991894;28;20042;-68
2022/03/03 03:12:29;;;;;;;80.53;37.30;;;1.20;99.90;;;;;;4984381;28;20133;-68
2022/03/03 03:14:55;;;;;;;77.20;38.20;;;1.20;99.90;;;;;;4986496;28;20486;-68
2022/03/03 03:17:20;;;;;;;71.13;36.10;;;1.20;99.90;;;;;;4999703;28;20108;-67
2022/03/03 03:19:46;;;;;;;75.38;35.97;;;1.20;99.90;;;;;;4990375;28;20142;-67
2022/03/03 03:22:12;;;;;;;75.03;36.50;;;1.20;99.90;;;;;;4998391;28;20081;-67
2022/03/03 03:24:38;;;;;;;76.00;35.42;;;1.10;99.90;;;;;;5002664;28;20077;-68
2022/03/03 03:27:04;;;;;;;74.00;35.22;;;1.10;99.90;;;;;;4976868;28;20119;-67
2022/03/03 03:29:29;;;;;;;68.95;34.47;;;1.10;99.90;;;;;;5001347;28;20050;-68
2022/03/03 03:31:55;;;;;;;69.93;36.47;;;1.10;99.90;;;;;;5015998;28;20411;-67
2022/03/03 03:34:21;;;;;;;73.82;36.25;;;1.00;99.90;;;;;;5008743;28;20370;-67
2022/03/03 03:36:48;;;;;;;72.00;35.75;;;1.00;99.90;;;;;;5006256;28;20173;-67
2022/03/03 03:39:14;;;;;;;61.33;32.08;;;0.90;99.90;;;;;;5000815;28;20478;-67
2022/03/03 03:41:40;;;;;;;70.88;35.03;;;0.80;99.90;;;;;;5005849;28;20128;-67
2022/03/03 03:44:06;;;;;;;67.72;34.83;;;0.80;99.90;;;;;;5003918;28;20042;-67
2022/03/03 03:46:32;;;;;;;69.28;33.35;;;0.80;99.90;;;;;;4988581;28;20053;-67
2022/03/03 03:48:57;;;;;;;68.68;32.72;;;0.80;99.90;;;;;;4985867;28;20042;-67
2022/03/03 03:51:23;;;;;;;68.30;31.90;;;0.70;99.90;;;;;;5000769;28;20042;-67
2022/03/03 03:53:49;;;;;;;61.38;33.15;;;0.70;99.90;;;;;;5002674;28;20050;-66
2022/03/03 03:56:14;;;;;;;69.13;34.17;;;0.70;99.90;;;;;;4998554;28;20058;-67
2022/03/03 03:58:40;;;;;;;62.67;32.78;;;0.70;99.90;;;;;;5001324;28;20052;-67
2022/03/03 04:01:06;;;;;;;70.90;33.10;;;0.60;99.90;;;;;;4978662;28;20053;-68
2022/03/03 04:03:31;;;;;;;64.70;33.72;;;0.60;99.90;;;;;;4988991;28;20078;-67
2022/03/03 04:05:57;;;;;;;71.65;35.85;;;0.60;99.90;;;;;;4998455;28;20050;-67
2022/03/03 04:08:23;;;;;;;66.35;32.80;;;0.60;99.90;;;;;;4983122;28;20057;-68
2022/03/03 04:10:49;;;;;;;67.75;34.72;;;0.60;99.90;;;;;;5005020;28;20037;-68
2022/03/03 04:13:15;;;;;;;67.30;32.90;;;0.70;99.90;;;;;;4985033;28;20050;-67
2022/03/03 04:15:41;;;;;;;68.13;35.05;;;0.70;99.90;;;;;;5000060;28;20520;-67
2022/03/03 04:18:07;;;;;;;76.32;35.80;;;0.60;99.90;;;;;;5000803;28;20104;-68
2022/03/03 04:20:33;;;;;;;73.20;34.65;;;0.60;99.90;;;;;;4997627;28;20417;-68
2022/03/03 04:22:59;;;;;;;65.63;34.28;;;0.60;99.90;;;;;;5000979;28;20054;-68
2022/03/03 04:25:25;;;;;;;73.50;35.40;;;0.60;99.90;;;;;;4997924;28;20532;-68
2022/03/03 04:27:50;;;;;;;69.97;34.55;;;0.50;99.90;;;;;;5005373;28;20042;-66
2022/03/03 04:30:16;;;;;;;71.93;34.75;;;0.50;99.90;;;;;;5004158;28;20042;-67
2022/03/03 04:32:42;;;;;;;69.32;34.42;;;0.50;99.90;;;;;;5007590;28;20041;-67
2022/03/03 04:35:09;;;;;;;72.75;34.70;;;0.50;99.90;;;;;;5004554;28;20050;-67
2022/03/03 04:37:36;;;;;;;70.53;34.00;;;0.40;99.90;;;;;;5001838;28;20123;-67
2022/03/03 04:40:03;;;;;;;67.50;33.95;;;0.40;99.90;;;;;;4987756;28;20050;-67
2022/03/03 04:42:29;;;;;;;69.97;35.35;;;0.30;99.90;;;;;;4997028;28;20050;-67
2022/03/03 04:44:55;;;;;;;67.43;33.17;;;0.30;99.90;;;;;;5019405;28;20049;-67
2022/03/03 04:47:20;;;;;;;71.28;35.53;;;0.30;99.90;;;;;;4991939;28;20041;-67
2022/03/03 04:49:46;;;;;;;75.78;34.60;;;0.30;99.90;;;;;;4991142;28;20046;-67
2022/03/03 04:52:12;;;;;;;73.28;35.75;;;0.20;99.90;;;;;;5008977;28;20505;-67
2022/03/03 04:54:37;;;;;;;68.65;33.80;;;0.20;99.90;;;;;;5009737;28;20139;-67
2022/03/03 04:57:03;;;;;;;65.25;33.10;;;0.20;99.90;;;;;;5008442;28;20116;-67
2022/03/03 04:59:29;;;;;;;68.97;34.88;;;0.20;99.90;;;;;;4988059;28;20065;-67
2022/03/03 05:01:55;;;;;;;70.55;35.33;;;0.10;99.90;;;;;;5001680;28;20050;-67
2022/03/03 05:04:21;;;;;;;74.72;34.85;;;0.00;99.90;;;;;;4999457;28;20077;-67
2022/03/03 05:06:48;;;;;;;61.38;32.55;;;0.00;99.90;;;;;;5009259;28;20038;-67
2022/03/03 05:09:14;;;;;;;62.22;33.60;;;-0.10;99.90;;;;;;5004074;28;20039;-67
2022/03/03 05:11:40;;;;;;;60.35;33.35;;;-0.10;99.90;;;;;;4995591;28;20086;-67
2022/03/03 05:14:06;;;;;;;67.28;35.20;;;-0.20;99.90;;;;;;5004835;28;20582;-67
2022/03/03 05:16:32;;;;;;;69.60;35.45;;;-0.10;99.90;;;;;;5016663;28;20042;-67
2022/03/03 05:18:57;;;;;;;72.30;35.55;;;-0.10;99.90;;;;;;5000771;28;20052;-67
2022/03/03 05:21:23;;;;;;;67.22;34.17;;;-0.10;99.90;;;;;;5004193;28;20504;-68
2022/03/03 05:23:49;;;;;;;72.95;36.25;;;-0.10;99.90;;;;;;4996384;28;20100;-67
2022/03/03 05:26:15;;;;;;;73.63;33.85;;;0.00;99.90;;;;;;5022466;28;20524;-67
2022/03/03 05:28:42;;;;;;;71.15;34.60;;;-0.10;99.90;;;;;;5004219;28;20047;-67
2022/03/03 05:31:08;;;;;;;77.50;37.92;;;-0.10;99.90;;;;;;5005052;28;20038;-67
2022/03/03 05:33:34;;;;;;;74.15;34.75;;;-0.10;99.90;;;;;;5009327;28;20041;-67
2022/03/03 05:36:04;;;;;;;73.30;34.28;;;-0.10;99.90;;;;;;5008034;28;20049;-67
2022/03/03 05:38:31;;;;;;;75.47;35.72;;;-0.20;99.90;;;;;;4994486;28;20041;-67
2022/03/03 05:40:58;;;;;;;73.88;35.45;;;-0.20;99.90;;;;;;4992186;28;20571;-67
2022/03/03 05:43:25;;;;;;;80.07;36.03;;;-0.20;99.90;;;;;;5004030;28;20049;-67
2022/03/03 05:45:54;;;;;;;70.35;34.13;;;-0.20;99.90;;;;;;5000282;28;20046;-67
2022/03/03 05:48:22;;;;;;;74.88;37.40;;;-0.20;99.90;;;;;;5003235;28;20038;-68
2022/03/03 05:50:48;;;;;;;73.03;35.10;;;-0.20;99.90;;;;;;4997664;28;20084;-67
2022/03/03 05:53:14;;;;;;;76.47;36.55;;;-0.10;99.90;;;;;;5004817;28;20057;-68
2022/03/03 05:55:49;;;;;;;80.25;37.97;;;-0.20;99.90;;;;;;4990937;28;20053;-67
2022/03/03 05:58:17;;;;;;;75.00;35.90;;;-0.10;99.90;;;;;;5007489;28;20647;-67
2022/03/03 06:00:47;;;;;;;83.80;36.53;;;0.00;99.90;;;;;;5006755;28;20168;-67
2022/03/03 06:03:16;;;;;;;69.22;33.97;;;-0.10;99.90;;;;;;5002944;28;20038;-68
2022/03/03 06:05:48;;;;;;;73.97;34.83;;;0.00;99.90;;;;;;5002956;28;20046;-67
2022/03/03 06:08:23;;;;;;;72.50;34.95;;;0.00;99.90;;;;;;5017906;28;20038;-68
2022/03/03 06:10:53;;;;;;;73.93;36.45;;;0.00;99.90;;;;;;5001548;28;20050;-67
2022/03/03 06:13:25;;;;;;;72.13;37.80;;;0.00;99.90;;;;;;5004221;28;20140;-67
2022/03/03 06:15:52;;;;;;;76.40;35.97;;;0.00;99.90;;;;;;5001638;28;20206;-67
2022/03/03 06:18:28;;;;;;;77.70;35.50;;;0.00;99.90;;;;;;5008549;28;20046;-67
2022/03/03 06:20:54;;;;;;;76.20;36.22;;;0.00;99.90;;;;;;5024253;28;20053;-68
2022/03/03 06:23:20;;;;;;;75.78;35.65;;;0.00;99.90;;;;;;5030110;28;20140;-68
2022/03/03 06:25:56;;;;;;;80.53;38.08;;;0.10;99.90;;;;;;4977643;28;20045;-67
2022/03/03 06:28:23;;;;;;;69.55;34.40;;;0.10;99.90;;;;;;5006174;28;20042;-68
2022/03/03 06:30:48;;;;;;;77.00;37.45;;;0.10;99.90;;;;;;5010300;28;20049;-68
2022/03/03 06:33:14;;;;;;;77.97;36.17;;;0.20;99.90;;;;;;5008928;28;20427;-68
2022/03/03 06:35:40;;;;;;;73.72;34.63;;;0.20;99.90;;;;;;4998487;28;20040;-68
2022/03/03 06:38:06;;;;;;;81.57;38.83;;;0.30;99.90;;;;;;4996317;28;20067;-67
2022/03/03 06:40:33;;;;;;;72.70;35.22;;;0.30;99.90;;;;;;5016080;28;20042;-68
2022/03/03 06:43:02;;;;;;;73.57;35.63;;;0.40;99.90;;;;;;4995058;28;20495;-68
2022/03/03 06:45:29;;;;;;;81.15;38.15;;;0.40;99.90;;;;;;5016124;28;20537;-67
2022/03/03 06:47:57;;;;;;;76.10;35.75;;;0.40;99.90;;;;;;5018262;28;20052;-68
2022/03/03 06:50:23;;;;;;;81.80;37.70;;;0.50;99.90;;;;;;5008593;28;20124;-67
2022/03/03 06:52:50;;;;;;;87.38;39.17;;;0.40;99.90;;;;;;5015576;28;20129;-68
2022/03/03 06:55:24;;;;;;;87.15;38.90;;;0.50;99.90;;;;;;5009010;28;20483;-67
2022/03/03 06:57:55;;;;;;;86.45;39.72;;;0.40;99.90;;;;;;5000800;28;20104;-67
2022/03/03 07:00:22;;;;;;;;;;;0.50;99.90;;;;;;5022926;28;20067;-68
2022/03/03 07:02:48;;;;;;;75.60;38.03;;;0.50;99.90;;;;;;5010170;28;19925;-68
2022/03/03 07:05:17;;;;;;;85.30;39.25;;;0.50;99.90;;;;;;5017229;28;20049;-68
2022/03/03 07:07:45;;;;;;;87.55;38.55;;;0.60;99.90;;;;;;4990611;28;20132;-68
2022/03/03 07:10:13;;;;;;;90.97;40.10;;;0.70;99.90;;;;;;5006113;28;20429;-68
2022/03/03 07:12:41;;;;;;;84.22;37.67;;;0.70;99.90;;;;;;5003595;28;20042;-68
2022/03/03 07:15:08;;;;;;;88.72;38.65;;;0.80;99.90;;;;;;5006998;28;20061;-67
2022/03/03 07:17:51;;;;;;;85.55;40.42;;;0.80;99.90;;;;;;5007947;28;20041;-68
2022/03/03 07:20:35;;;;;;;86.40;38.42;;;0.90;99.90;;;;;;5001404;28;20519;-67
2022/03/03 07:23:04;;;;;;;82.13;40.40;;;1.00;99.90;;;;;;5005495;28;20124;-67
2022/03/03 07:25:40;;;;;;;85.35;38.17;;;1.00;99.90;;;;;;5003600;28;20046;-67
2022/03/03 07:28:08;;;;;;;88.60;41.35;;;1.10;99.90;;;;;;5001618;28;20125;-68
2022/03/03 07:30:41;;;;;;;91.63;40.40;;;1.10;99.90;;;;;;4994152;28;20417;-67
2022/03/03 07:33:39;;;;;;;94.45;39.88;;;1.20;99.90;;;;;;5000909;28;20497;-68
2022/03/03 07:36:08;;;;;;;84.38;38.80;;;1.20;99.90;;;;;;4959892;28;20125;-68
2022/03/03 07:38:39;;;;;;;81.20;37.10;;;1.30;99.90;;;;;;5001923;28;20085;-68
2022/03/03 07:41:07;;;;;;;82.53;36.35;;;1.30;99.90;;;;;;4995686;28;20129;-68
2022/03/03 07:43:33;;;;;;;88.43;40.80;;;1.40;99.90;;;;;;4992221;28;20033;-68
2022/03/03 07:45:59;;;;;;;89.03;40.75;;;1.40;99.90;;;;;;5005946;28;20054;-68
2022/03/03 07:48:25;;;;;;;87.20;39.35;;;1.50;99.90;;;;;;5002303;28;20392;-68
2022/03/03 07:50:52;;;;;;;90.05;40.03;;;1.50;99.90;;;;;;4991488;28;20443;-68
2022/03/03 07:53:18;;;;;;;88.07;41.38;;;1.60;99.90;;;;;;5005129;28;20108;-68
2022/03/03 07:55:55;;;;;;;86.85;40.60;;;1.70;99.90;;;;;;4985132;28;20046;-68
2022/03/03 07:58:29;;;;;;;96.20;42.47;;;1.80;99.90;;;;;;5000219;28;20042;-68
2022/03/03 08:01:01;;;;;;;78.50;37.42;;;1.90;99.90;;;;;;5003526;28;20461;-68
2022/03/03 08:03:29;;;;;;;82.47;38.25;;;2.00;99.90;;;;;;5002155;28;20042;-68
2022/03/03 08:05:57;;;;;;;80.70;37.47;;;2.10;99.90;;;;;;5008553;28;20381;-68
2022/03/03 08:08:28;;;;;;;84.72;39.67;;;2.20;99.90;;;;;;5009929;28;20037;-69
2022/03/03 08:11:05;;;;;;;83.80;39.75;;;2.30;99.90;;;;;;4978706;28;20084;-68
2022/03/03 08:13:33;;;;;;;85.20;40.80;;;2.40;99.90;;;;;;5007374;28;20433;-68
2022/03/03 08:15:59;;;;;;;77.05;40.28;;;2.50;99.90;;;;;;5007389;28;20138;-68
2022/03/03 08:18:35;;;;;;;89.47;41.45;;;2.50;99.90;;;;;;4995287;28;20104;-68
2022/03/03 08:21:04;;;;;;;89.13;40.13;;;2.60;99.90;;;;;;5013617;28;20076;-68
2022/03/03 08:23:32;;;;;;;80.85;39.47;;;2.60;99.90;;;;;;5016972;28;20431;-68
2022/03/03 08:25:59;;;;;;;87.43;42.35;;;2.60;99.90;;;;;;5002880;28;20491;-68
2022/03/03 08:28:25;;;;;;;87.07;38.90;;;2.70;99.90;;;;;;5010026;28;20041;-68
2022/03/03 08:31:02;;;;;;;76.80;34.22;;;2.70;99.90;;;;;;5012131;28;20045;-68
2022/03/03 08:33:35;;;;;;;77.78;38.97;;;2.80;99.90;;;;;;5006880;28;20054;-68
2022/03/03 08:36:06;;;;;;;86.07;40.55;;;2.90;99.90;;;;;;5012953;28;20133;-68
2022/03/03 08:38:46;;;;;;;77.68;36.50;;;3.00;99.90;;;;;;5010447;28;20078;-68
2022/03/03 08:41:15;;;;;;;76.10;36.25;;;3.10;99.90;;;;;;4993480;28;20054;-69
2022/03/03 08:43:43;;;;;;;75.63;36.15;;;3.30;99.90;;;;;;5005846;28;20113;-69
2022/03/03 08:46:09;;;;;;;77.28;36.03;;;3.30;99.90;;;;;;4993133;28;20133;-69
2022/03/03 08:48:35;;;;;;;75.40;35.33;;;3.40;99.90;;;;;;5010066;28;20046;-69
2022/03/03 08:51:02;;;;;;;73.80;35.67;;;3.50;99.90;;;;;;5010012;28;20057;-69
2022/03/03 08:53:29;;;;;;;73.57;36.25;;;3.40;99.90;;;;;;5010225;28;20053;-69
2022/03/03 08:55:58;;;;;;;77.28;36.80;;;3.50;99.90;;;;;;5002395;28;20046;-69
2022/03/03 08:58:24;;;;;;;72.40;36.10;;;3.50;99.90;;;;;;5008025;28;20045;-68
2022/03/03 09:00:50;;;;;;;64.68;34.42;;;3.60;99.90;;;;;;5005120;28;20053;-69
2022/03/03 09:03:21;;;;;;;68.93;33.92;;;3.70;99.90;;;;;;5007643;28;20050;-68
2022/03/03 09:05:48;;;;;;;68.70;36.72;;;3.90;99.90;;;;;;5005228;28;20042;-68
2022/03/03 09:08:14;;;;;;;61.35;30.92;;;3.90;99.90;;;;;;4976123;28;20033;-68
2022/03/03 09:10:40;;;;;;;64.28;35.08;;;4.00;99.90;;;;;;5000860;28;20047;-68
2022/03/03 09:13:06;;;;;;;65.32;34.13;;;4.10;99.90;;;;;;4991840;28;20042;-68
2022/03/03 09:15:33;;;;;;;67.88;36.55;;;4.20;99.90;;;;;;5003894;28;20064;-68
2022/03/03 09:18:00;;;;;;;69.10;34.55;;;4.30;99.90;;;;;;4992384;28;20092;-68
2022/03/03 09:20:26;;;;;;;66.10;33.00;;;4.30;99.90;;;;;;5016455;28;20542;-68
2022/03/03 09:22:53;;;;;;;55.30;29.95;;;4.40;99.90;;;;;;5042073;28;20041;-68
2022/03/03 09:25:20;;;;;;;67.93;32.83;;;4.40;99.90;;;;;;5045519;28;20487;-68
2022/03/03 09:27:46;;;;;;;63.50;33.90;;;4.50;99.90;;;;;;5043966;28;20189;-68
2022/03/03 09:30:13;;;;;;;66.95;33.05;;;4.60;99.90;;;;;;5027605;28;20083;-68
2022/03/03 09:32:40;;;;;;;65.90;29.35;;;4.70;99.90;;;;;;5028825;28;20131;-68
2022/03/03 09:35:07;;;;;;;67.82;34.97;;;5.00;99.90;;;;;;5026186;28;20108;-68
2022/03/03 09:37:32;;;;;;;64.28;32.80;;;5.10;99.90;;;;;;5019906;28;20451;-68
2022/03/03 09:39:58;;;;;;;70.18;32.67;;;5.30;99.90;;;;;;5024209;28;20120;-68
2022/03/03 09:42:31;;;;;;;58.38;31.83;;;5.50;99.90;;;;;;5027079;28;20068;-68
2022/03/03 09:44:58;;;;;;;57.40;33.17;;;5.60;99.90;;;;;;5042853;28;20056;-68
2022/03/03 09:47:24;;;;;;;60.17;31.95;;;5.60;99.90;;;;;;4993946;28;20044;-68
2022/03/03 09:49:50;;;;;;;59.88;32.65;;;5.60;99.90;;;;;;5014855;28;20088;-68
2022/03/03 09:52:18;;;;;;;58.25;33.00;;;5.60;99.90;;;;;;5013417;28;20049;-68
2022/03/03 09:54:51;;;;;;;53.92;29.15;;;5.70;99.90;;;;;;5005167;28;20590;-68
2022/03/03 09:57:17;;;;;;;58.60;31.05;;;5.80;99.90;;;;;;5022564;28;20103;-69
2022/03/03 09:59:44;;;;;;;65.90;33.28;;;5.80;99.90;;;;;;5019679;28;20041;-68
2022/03/03 10:02:11;;;;;;;55.35;31.50;;;5.80;99.90;;;;;;5002828;28;20077;-68
2022/03/03 10:04:37;;;;;;;53.53;30.20;;;5.80;99.90;;;;;;5035965;28;20495;-68
2022/03/03 10:07:07;;;;;;;63.47;33.90;;;5.80;99.90;;;;;;5024993;28;20043;-69
2022/03/03 10:09:59;;;;;;;61.70;33.97;;;6.00;99.90;;;;;;5015551;28;20042;-69
2022/03/03 10:12:26;;;;;;;66.25;34.20;;;6.10;99.90;;;;;;5005165;28;20095;-69
2022/03/03 10:15:00;;;;;;;65.93;36.00;;;6.10;99.90;;;;;;5006709;28;20129;-69
2022/03/03 10:17:36;;;;;;;67.75;36.88;;;5.90;99.90;;;;;;4991240;28;20034;-69
2022/03/03 10:20:04;;;;;;;64.95;33.30;;;5.90;99.90;;;;;;5003021;28;20493;-69
2022/03/03 10:22:57;;;;;;;58.85;32.97;;;5.90;99.90;;;;;;4982177;28;20046;-69
2022/03/03 10:25:44;;;;;;;58.90;33.08;;;5.90;99.90;;;;;;4997521;28;20041;-69
2022/03/03 10:28:25;;;;;;;54.53;31.67;;;6.10;99.90;;;;;;5003352;28;20050;-69
2022/03/03 10:31:09;;;;;;;60.17;32.65;;;6.20;99.90;;;;;;5000748;28;20078;-69
2022/03/03 10:33:38;;;;;;;56.97;31.05;;;6.40;99.90;;;;;;4988950;28;20118;-69
2022/03/03 10:36:16;;;;;;;61.13;34.60;;;6.50;99.90;;;;;;4986013;28;20503;-69
2022/03/03 10:38:47;;;;;;;60.72;36.40;;;6.60;99.90;;;;;;4992825;28;20053;-70
2022/03/03 10:41:31;;;;;;;55.60;30.65;;;6.70;99.90;;;;;;5006470;28;20045;-69
2022/03/03 10:43:58;;;;;;;54.90;32.10;;;6.70;99.90;;;;;;5004248;28;20057;-69
2022/03/03 10:46:24;;;;;;;58.72;32.15;;;6.80;99.90;;;;;;5008232;28;20435;-70
2022/03/03 10:48:50;;;;;;;51.72;31.45;;;7.00;99.90;;;;;;5007180;28;20052;-69
2022/03/03 10:51:16;;;;;;;57.50;31.60;;;7.10;99.90;;;;;;5009044;28;20033;-70
2022/03/03 10:53:43;;;;;;;61.55;33.65;;;7.20;99.90;;;;;;5003518;28;20050;-70
2022/03/03 10:56:15;;;;;;;53.80;33.20;;;7.20;99.90;;;;;;4984511;28;20061;-70
2022/03/03 10:58:49;;;;;;;57.88;32.90;;;7.20;99.90;;;;;;5004881;28;20183;-69
2022/03/03 11:01:17;;;;;;;58.42;32.38;;;7.20;99.90;;;;;;5003871;28;20180;-69
2022/03/03 11:03:49;;;;;;;55.85;33.38;;;7.30;99.90;;;;;;5007300;28;20073;-69
2022/03/03 11:06:24;;;;;;;58.42;32.33;;;7.40;99.90;;;;;;4990217;28;20049;-69
2022/03/03 11:08:51;;;;;;;55.60;33.35;;;7.50;99.90;;;;;;5003558;28;20056;-70
2022/03/03 11:11:18;;;;;;;53.97;33.47;;;7.50;99.90;;;;;;5002778;28;20046;-69
2022/03/03 11:13:47;;;;;;;54.75;31.67;;;7.50;99.90;;;;;;4995555;28;20082;-69
2022/03/03 11:16:18;;;;;;;57.75;32.80;;;7.60;99.90;;;;;;4974563;28;20384;-70
2022/03/03 11:18:45;;;;;;;52.38;30.40;;;7.50;99.90;;;;;;5009047;28;20104;-70
2022/03/03 11:21:13;;;;;;;52.67;31.58;;;7.60;99.90;;;;;;5001238;28;20510;-70
2022/03/03 11:23:41;;;;;;;47.63;29.83;;;7.70;99.90;;;;;;5025269;28;20132;-70
2022/03/03 11:26:09;;;;;;;52.72;28.75;;;7.80;99.90;;;;;;5004394;28;20094;-70
2022/03/03 11:28:36;;;;;;;45.10;26.92;;;7.90;99.90;;;;;;5025654;28;20045;-70
2022/03/03 11:31:22;;;;;;;43.65;27.10;;;7.90;99.90;;;;;;5002912;28;20395;-70
2022/03/03 11:33:47;;;;;;;48.33;28.45;;;8.00;99.90;;;;;;4988455;28;20062;-70
2022/03/03 11:36:22;;;;;;;40.88;25.95;;;8.00;99.90;;;;;;5002752;28;20403;-70
2022/03/03 11:38:54;;;;;;;46.28;27.30;;;8.00;99.90;;;;;;4979550;28;20511;-70
2022/03/03 11:41:25;;;;;;;46.42;27.35;;;8.00;99.90;;;;;;5002300;28;20053;-70
2022/03/03 11:44:02;;;;;;;45.03;25.63;;;8.10;99.90;;;;;;4997600;28;20374;-70
2022/03/03 11:46:43;;;;;;;44.40;25.83;;;8.20;99.90;;;;;;4975763;28;20401;-69
2022/03/03 11:49:11;;;;;;;39.33;23.73;;;8.20;99.90;;;;;;4990959;28;20111;-70
2022/03/03 11:51:37;;;;;;;39.65;23.85;;;8.20;99.90;;;;;;4988230;28;20053;-69
2022/03/03 11:54:09;;;;;;;36.17;22.80;;;8.20;99.30;;;;;;4996016;28;20391;-72
2022/03/03 11:56:55;;;;;;;38.83;24.52;;;7.90;99.20;;;;;;4998952;28;20049;-70
2022/03/03 11:59:32;;;;;;;37.00;21.05;;;7.90;99.90;;;;;;4981071;28;20393;-70
2022/03/03 12:01:57;;;;;;;37.78;21.30;;;8.10;99.90;;;;;;5007702;28;20046;-70
2022/03/03 12:04:26;;;;;;;44.78;24.83;;;8.10;99.90;;;;;;5001051;28;20057;-70
2022/03/03 12:06:54;;;;;;;38.83;23.42;;;8.20;99.90;;;;;;4991963;28;20152;-70
2022/03/03 12:09:30;;;;;;;38.60;23.23;;;8.40;99.90;;;;;;4987877;28;20050;-70
2022/03/03 12:12:10;;;;;;;39.67;23.52;;;8.30;99.90;;;;;;5005811;28;20054;-69
2022/03/03 12:14:42;;;;;;;28.33;15.43;;;8.40;99.90;;;;;;4994050;28;20124;-69
2022/03/03 12:17:54;;;;;;;45.90;23.33;;;8.50;99.90;;;;;;4988201;28;20521;-70
2022/03/03 12:20:34;;;;;;;33.58;19.95;;;8.50;99.70;;;;;;4991376;28;20049;-70
2022/03/03 12:23:11;;;;;;;35.33;21.23;;;8.50;99.50;;;;;;4993279;28;20823;-70
2022/03/03 12:25:59;;;;;;;33.55;21.25;;;8.60;99.90;;;;;;4992750;28;20049;-70
2022/03/03 12:28:26;;;;;;;34.70;20.60;;;8.70;99.90;;;;;;4976724;28;20509;-70
2022/03/03 12:30:54;;;;;;;31.60;20.50;;;8.80;99.90;;;;;;4985446;28;20054;-69
2022/03/03 12:33:31;;;;;;;31.95;21.60;;;8.90;99.90;;;;;;4986554;28;20495;-70
2022/03/03 12:36:03;;;;;;;34.80;22.13;;;8.90;99.90;;;;;;4975400;28;20046;-70
2022/03/03 12:38:29;;;;;;;34.33;20.67;;;8.90;99.90;;;;;;5019916;28;20120;-69
2022/03/03 12:40:54;;;;;;;34.97;20.50;;;8.80;96.60;;;;;;5002734;28;20125;-70
2022/03/03 12:43:21;;;;;;;32.47;21.27;;;8.70;96.80;;;;;;5000912;28;20045;-70
2022/03/03 12:45:48;;;;;;;32.58;18.60;;;8.80;99.90;;;;;;4988435;28;20042;-69